Time;durP1;ratioP1;P1;durP2;ratioP2;P2;SDS_P1;SDS_P2;PMS_P1;PMS_P2;Temp;Humidity;BMP_temperature;BMP_pressure;BME280_temperature;BME280_humidity;BME280_pressure;Samples;Min_cycle;Max_cycle;Signal;HPM_P1;HPM_P2
2022/12/12 00:01:02;;;;;;;;;;;;;;;16.50;67.52;99957.50;5114817;27;19915;-85
2022/12/12 00:03:27;;;;;;;;;;;;;;;16.47;67.59;99960.97;5117670;27;19943;-85
2022/12/12 00:05:54;;;;;;;;;;;;;;;16.48;67.64;99961.84;5136126;27;19926;-86
2022/12/12 00:08:19;;;;;;;;;;;;;;;16.48;67.58;99968.00;5136262;27;20015;-86
2022/12/12 00:10:44;;;;;;;;;;;;;;;16.48;67.70;99972.41;5135738;27;20011;-85
2022/12/12 00:13:10;;;;;;;;;;;;;;;16.48;67.75;99990.84;5136053;27;19955;-86
2022/12/12 00:15:35;;;;;;;;;;;;;;;16.45;67.72;99986.41;5127555;27;20392;-85
2022/12/12 00:18:01;;;;;;;;;;;;;;;16.47;67.79;100003.13;5134136;27;20407;-86
2022/12/12 00:20:26;;;;;;;;;;;;;;;16.43;67.44;99996.03;5095300;28;20385;-85
2022/12/12 00:22:51;;;;;;;;;;;;;;;16.41;67.68;100004.78;5094683;28;20348;-85
2022/12/12 00:25:17;;;;;;;;;;;;;;;16.45;67.77;100011.88;5093653;28;20003;-86
2022/12/12 00:27:42;;;;;;;;;;;;;;;16.45;67.80;100019.78;5094892;28;19916;-85
2022/12/12 00:30:08;;;;;;;;;;;;;;;16.43;68.13;100022.38;5093789;28;19938;-87
2022/12/12 00:32:33;;;;;;;;;;;;;;;16.40;67.51;100025.00;5090899;28;19916;-86
2022/12/12 00:35:00;;;;;;;;;;;;;;;16.41;67.55;100025.88;5082540;28;20366;-86
2022/12/12 00:37:25;;;;;;;;;;;;;;;16.41;67.98;100025.88;5087218;28;20083;-86
2022/12/12 00:39:51;;;;;;;;;;;;;;;16.42;68.17;100030.25;5081056;28;19919;-86
2022/12/12 00:42:16;;;;;;;;;;;;;;;16.34;67.82;100029.22;5081431;28;20007;-85
2022/12/12 00:44:41;;;;;;;;;;;;;;;16.39;67.91;100030.22;5079459;28;20416;-86
2022/12/12 00:47:07;;;;;;;;;;;;;;;16.40;67.83;100027.63;5094861;28;20381;-85
2022/12/12 00:49:32;;;;;;;;;;;;;;;16.40;67.94;100034.63;5072728;28;20381;-84
2022/12/12 00:51:58;;;;;;;;;;;;;;;16.39;67.91;100031.09;5087465;28;20444;-85
2022/12/12 00:54:24;;;;;;;;;;;;;;;16.35;67.75;100038.94;5091162;28;19916;-86
2022/12/12 00:56:49;;;;;;;;;;;;;;;16.37;67.86;100043.34;5076110;28;20534;-84
2022/12/12 00:59:14;;;;;;;;;;;;;;;16.40;68.12;100061.88;5072723;28;20302;-85
2022/12/12 01:01:40;;;;;;;;;;;;;;;16.38;68.12;100066.22;5076166;28;19916;-86
2022/12/12 01:04:06;;;;;;;;;;;;;;;16.37;68.12;100072.34;5077680;28;19917;-86
2022/12/12 01:06:32;;;;;;;;;;;;;;;16.31;68.20;100088.03;5075808;28;19923;-87
2022/12/12 01:08:57;;;;;;;;;;;;;;;16.33;67.86;100098.59;5079605;28;19912;-87
2022/12/12 01:11:23;;;;;;;;;;;;;;;16.33;67.78;100112.66;5091794;28;19916;-84
2022/12/12 01:13:49;;;;;;;;;;;;;;;16.36;67.99;100120.66;5091288;28;20329;-84
2022/12/12 01:16:15;;;;;;;;;;;;;;;16.35;68.07;100113.56;5092973;28;20005;-85
2022/12/12 01:18:40;;;;;;;;;;;;;;;16.36;68.37;100119.72;5093891;28;19990;-85
2022/12/12 01:21:07;;;;;;;;;;;;;;;16.35;68.01;100115.34;5092419;28;19927;-85
2022/12/12 01:23:32;;;;;;;;;;;;;;;16.35;68.29;100115.34;5075108;28;19916;-84
2022/12/12 01:25:58;;;;;;;;;;;;;;;16.31;68.22;100110.84;5087454;28;19923;-87
2022/12/12 01:28:24;;;;;;;;;;;;;;;16.31;68.16;100117.00;5092517;28;20007;-87
2022/12/12 01:30:49;;;;;;;;;;;;;;;16.31;68.11;100118.75;5087415;28;20358;-86
2022/12/12 01:33:15;;;;;;;;;;;;;;;16.28;68.14;100115.22;5072124;28;20447;-86
2022/12/12 01:35:40;;;;;;;;;;;;;;;16.31;68.00;100118.75;5088437;28;19977;-86
2022/12/12 01:38:06;;;;;;;;;;;;;;;16.31;68.04;100116.13;5086186;28;19916;-84
2022/12/12 01:40:31;;;;;;;;;;;;;;;16.25;68.26;100123.03;5092097;28;19967;-87
2022/12/12 01:42:57;;;;;;;;;;;;;;;16.26;68.03;100123.94;5094921;28;20393;-87
2022/12/12 01:45:41;;;;;;;;;;;;;;;16.27;67.94;100123.06;5091399;28;19965;-87
2022/12/12 01:48:07;;;;;;;;;;;;;;;16.25;68.09;100125.66;5085115;28;19984;-87
2022/12/12 01:50:32;;;;;;;;;;;;;;;16.27;68.40;100126.59;5095565;28;19963;-87
2022/12/12 01:52:58;;;;;;;;;;;;;;;16.27;68.60;100133.59;5081370;28;20389;-87
2022/12/12 01:55:23;;;;;;;;;;;;;;;16.26;68.41;100127.47;5083046;28;19920;-87
2022/12/12 01:57:50;;;;;;;;;;;;;;;16.27;68.66;100137.13;5078301;28;19938;-87
2022/12/12 02:00:17;;;;;;;;;;;;;;;16.24;68.50;100133.56;5094504;28;19916;-86
2022/12/12 02:02:44;;;;;;;;;;;;;;;16.25;68.60;100138.84;5085799;28;20600;-87
2022/12/12 02:05:27;;;;;;;;;;;;;;;16.24;68.53;100144.97;5093254;28;19916;-87
2022/12/12 02:07:53;;;;;;;;;;;;;;;16.25;68.70;100137.97;5095367;28;19916;-87
2022/12/12 02:10:19;;;;;;;;;;;;;;;16.24;68.69;100134.44;5073680;28;19969;-87
2022/12/12 02:12:44;;;;;;;;;;;;;;;16.22;68.60;100132.63;5078960;28;20389;-87
2022/12/12 02:15:10;;;;;;;;;;;;;;;16.22;68.69;100133.53;5080894;28;19927;-86
2022/12/12 02:17:58;;;;;;;;;;;;;;;16.20;68.73;100127.34;5086788;28;19947;-87
2022/12/12 02:20:42;;;;;;;;;;;;;;;16.18;68.93;100130.78;5095763;27;19919;-87
2022/12/12 02:23:16;;;;;;;;;;;;;;;16.21;68.64;100138.75;5092568;27;20349;-86
2022/12/12 02:25:50;;;;;;;;;;;;;;;16.21;68.80;100141.38;5078655;28;20383;-87
2022/12/12 02:28:35;;;;;;;;;;;;;;;16.19;68.70;100146.63;5128631;27;20477;-86
2022/12/12 02:31:05;;;;;;;;;;;;;;;16.19;68.65;100146.63;5105556;27;19915;-87
2022/12/12 02:33:34;;;;;;;;;;;;;;;16.19;68.92;100162.44;5109278;27;19919;-87
2022/12/12 02:36:18;;;;;;;;;;;;;;;16.16;68.83;100165.00;5108196;28;19963;-87
2022/12/12 02:39:02;;;;;;;;;;;;;;;16.17;68.84;100165.88;5115204;27;19916;-87
2022/12/12 02:41:31;;;;;;;;;;;;;;;16.18;68.72;100168.56;5128741;27;20312;-87
2022/12/12 02:44:10;;;;;;;;;;;;;;;16.16;68.65;100172.91;5098415;27;19923;-87
2022/12/12 02:46:54;;;;;;;;;;;;;;;16.15;68.75;100172.84;5115299;27;19957;-87
2022/12/12 02:49:24;;;;;;;;;;;;;;;16.15;68.93;100171.13;5130804;27;19923;-87
2022/12/12 02:51:50;;;;;;;;;;;;;;;16.13;68.96;100175.47;5113324;27;19985;-88
2022/12/12 02:54:16;;;;;;;;;;;;;;;16.14;68.94;100184.25;5108044;27;20427;-87
2022/12/12 02:56:52;;;;;;;;;;;;;;;16.12;68.91;100186.84;5111681;27;19919;-87
2022/12/12 02:59:36;;;;;;;;;;;;;;;16.14;68.70;100185.16;5097366;27;19915;-86
2022/12/12 03:02:21;;;;;;;;;;;;;;;16.12;68.96;100202.66;5103912;27;20014;-87
2022/12/12 03:07:46;;;;;;;;;;;;;;;16.12;68.93;100196.50;5116752;27;19919;-86
2022/12/12 03:10:15;;;;;;;;;;;;;;;16.09;68.93;100202.59;5101339;27;20380;-87
2022/12/12 03:12:49;;;;;;;;;;;;;;;16.09;68.92;100197.34;5124136;27;19916;-86
2022/12/12 03:15:18;;;;;;;;;;;;;;;16.08;68.96;100199.06;5126211;27;19926;-87
2022/12/12 03:17:43;;;;;;;;;;;;;;;16.07;69.07;100199.06;5126694;27;19923;-86
2022/12/12 03:20:27;;;;;;;;;;;;;;;16.06;69.03;100211.34;5111317;27;19919;-86
2022/12/12 03:23:05;;;;;;;;;;;;;;;16.08;68.99;100213.97;5100953;27;19919;-85
2022/12/12 03:25:54;;;;;;;;;;;;;;;16.06;69.00;100218.31;5107674;27;19916;-86
2022/12/12 03:28:19;;;;;;;;;;;;;;;16.05;69.06;100219.19;5123104;27;19955;-86
2022/12/12 03:30:45;;;;;;;;;;;;;;;16.04;69.04;100226.22;5105494;28;19943;-86
2022/12/12 03:33:17;;;;;;;;;;;;;;;16.03;69.05;100228.81;5098066;27;19950;-86
2022/12/12 03:35:47;;;;;;;;;;;;;;;16.04;69.01;100230.56;5109795;28;20400;-86
2022/12/12 03:38:23;;;;;;;;;;;;;;;16.01;69.15;100241.03;5113645;28;19919;-86
2022/12/12 03:40:50;;;;;;;;;;;;;;;16.02;68.92;100258.59;5127837;28;19926;-86
2022/12/12 03:43:20;;;;;;;;;;;;;;;16.03;69.07;100269.19;5112938;28;19919;-87
2022/12/12 03:45:49;;;;;;;;;;;;;;;16.01;69.06;100267.38;5111684;28;20138;-86
2022/12/12 03:48:17;;;;;;;;;;;;;;;16.00;68.89;100266.50;5098192;28;20598;-86
2022/12/12 03:50:53;;;;;;;;;;;;;;;15.99;69.05;100269.97;5112926;28;20324;-86
2022/12/12 03:53:19;;;;;;;;;;;;;;;16.00;68.98;100262.94;5111947;28;19915;-86
2022/12/12 03:55:46;;;;;;;;;;;;;;;15.96;69.01;100248.84;5131294;28;20373;-85
2022/12/12 03:58:17;;;;;;;;;;;;;;;15.94;69.05;100245.28;5104942;28;19915;-86
2022/12/12 04:00:43;;;;;;;;;;;;;;;15.97;69.14;100252.34;5107512;28;20392;-86
2022/12/12 04:03:21;;;;;;;;;;;;;;;15.96;69.01;100255.81;5112030;28;19964;-86
2022/12/12 04:08:35;;;;;;;;;;;;;;;15.95;69.13;100259.31;5120253;28;20397;-86
2022/12/12 04:13:50;;;;;;;;;;;;;;;15.91;69.23;100258.34;5114388;28;20358;-86
2022/12/12 04:16:18;;;;;;;;;;;;;;;15.91;69.06;100262.75;5128390;28;20014;-86
2022/12/12 04:18:48;;;;;;;;;;;;;;;15.94;69.17;100270.69;5093188;28;20332;-86
2022/12/12 04:24:18;;;;;;;;;;;;;;;15.89;69.25;100281.13;5108845;28;19921;-86
2022/12/12 04:26:45;;;;;;;;;;;;;;;15.88;69.16;100282.00;5105101;28;21102;-85
2022/12/12 04:29:29;;;;;;;;;;;;;;;15.87;69.15;100286.38;5101923;28;19919;-86
2022/12/12 04:32:07;;;;;;;;;;;;;;;15.83;69.36;100276.63;5125485;28;19922;-86
2022/12/12 04:34:38;;;;;;;;;;;;;;;15.84;69.24;100280.13;5127329;28;20388;-86
2022/12/12 04:37:04;;;;;;;;;;;;;;;15.84;69.40;100280.13;5129243;28;20481;-86
2022/12/12 04:39:29;;;;;;;;;;;;;;;15.81;69.30;100283.59;5097120;28;19970;-86
2022/12/12 04:41:56;;;;;;;;;;;;;;;15.83;69.35;100276.63;5088635;28;19919;-87
2022/12/12 04:44:21;;;;;;;;;;;;;;;15.81;69.43;100275.69;5109746;28;19996;-86
2022/12/12 04:46:48;;;;;;;;;;;;;;;15.81;69.33;100277.41;5113299;27;19985;-86
2022/12/12 04:49:14;;;;;;;;;;;;;;;15.81;69.22;100287.94;5102099;27;20370;-86
2022/12/12 04:51:41;;;;;;;;;;;;;;;15.79;69.29;100285.28;5099187;27;19935;-85
2022/12/12 04:54:39;;;;;;;;;;;;;;;15.78;69.34;100288.75;5114539;27;19919;-86
2022/12/12 04:57:06;;;;;;;;;;;;;;;15.77;69.40;100297.53;5081620;27;20010;-86
2022/12/12 04:59:31;;;;;;;;;;;;;;;15.78;69.33;100303.69;5108815;28;19915;-85
2022/12/12 05:02:06;;;;;;;;;;;;;;;15.76;69.46;100310.63;5126918;27;19916;-86
2022/12/12 05:04:37;;;;;;;;;;;;;;;15.77;69.36;100323.84;5103020;28;20376;-86
2022/12/12 05:07:38;;;;;;;;;;;;;;;15.75;69.37;100316.78;5110639;27;19945;-85
2022/12/12 05:10:09;;;;;;;;;;;;;;;15.75;69.43;100332.56;5042106;28;19932;-86
2022/12/12 05:12:45;;;;;;;;;;;;;;;15.72;69.39;100346.50;5101934;27;20380;-86
2022/12/12 05:15:11;;;;;;;;;;;;;;;15.74;69.32;100357.09;5108287;27;20289;-86
2022/12/12 05:17:46;;;;;;;;;;;;;;;15.71;69.59;100362.25;5099632;27;19923;-86
2022/12/12 05:20:12;;;;;;;;;;;;;;;15.71;69.43;100363.13;5091787;27;20022;-84
2022/12/12 05:22:37;;;;;;;;;;;;;;;15.69;69.55;100362.22;5112478;27;20030;-87
2022/12/12 05:25:06;;;;;;;;;;;;;;;15.66;69.46;100373.56;5113841;27;19984;-86
2022/12/12 05:27:34;;;;;;;;;;;;;;;15.68;69.38;100369.22;5129225;27;19920;-87
2022/12/12 05:30:10;;;;;;;;;;;;;;;15.70;69.37;100377.13;5089745;28;19915;-86
2022/12/12 05:32:35;;;;;;;;;;;;;;;15.68;69.43;100374.50;5102091;27;20007;-86
2022/12/12 05:35:01;;;;;;;;;;;;;;;15.65;69.45;100384.91;5121490;27;19966;-87
2022/12/12 05:37:26;;;;;;;;;;;;;;;15.65;69.57;100386.66;5129099;27;20380;-87
2022/12/12 05:39:52;;;;;;;;;;;;;;;15.64;69.50;100380.53;5133497;27;19964;-86
2022/12/12 05:42:17;;;;;;;;;;;;;;;15.62;69.57;100376.03;5094569;27;19915;-86
2022/12/12 05:44:43;;;;;;;;;;;;;;;15.63;69.51;100373.44;5131036;27;19946;-86
2022/12/12 05:47:08;;;;;;;;;;;;;;;15.62;69.54;100384.84;5106784;28;19916;-85
2022/12/12 05:49:34;;;;;;;;;;;;;;;15.63;69.55;100389.25;5114977;27;20005;-86
2022/12/12 05:52:05;;;;;;;;;;;;;;;15.57;69.55;100393.44;5131835;27;19947;-86
2022/12/12 05:54:30;;;;;;;;;;;;;;;15.62;69.50;100397.09;5107097;27;19915;-86
2022/12/12 05:56:56;;;;;;;;;;;;;;;15.61;69.62;100397.97;5113146;27;19924;-85
2022/12/12 05:59:21;;;;;;;;;;;;;;;15.58;69.18;100405.78;5102237;27;19972;-86
2022/12/12 06:01:47;;;;;;;;;;;;;;;15.56;69.53;100413.63;5114331;27;20311;-86
2022/12/12 06:04:12;;;;;;;;;;;;;;;15.57;69.46;100403.97;5127274;27;19916;-84
2022/12/12 06:06:38;;;;;;;;;;;;;;;15.58;69.38;100403.16;5114263;27;19916;-85
2022/12/12 06:09:03;;;;;;;;;;;;;;;15.56;69.52;100396.94;5125703;27;19938;-87
2022/12/12 06:11:29;;;;;;;;;;;;;;;15.57;69.42;100396.09;5114243;27;20308;-86
2022/12/12 06:13:54;;;;;;;;;;;;;;;15.56;69.28;100403.09;5132023;27;19957;-86
2022/12/12 06:16:19;;;;;;;;;;;;;;;15.54;69.32;100407.44;5119435;27;19942;-87
2022/12/12 06:18:55;;;;;;;;;;;;;;;15.53;69.29;100399.47;5106419;27;20009;-85
2022/12/12 06:21:21;;;;;;;;;;;;;;;15.54;69.53;100411.81;5094393;27;19920;-86
2022/12/12 06:23:47;;;;;;;;;;;;;;;15.55;69.46;100414.47;5110894;27;19927;-86
2022/12/12 06:26:13;;;;;;;;;;;;;;;15.52;69.53;100430.19;5111600;27;20446;-86
2022/12/12 06:28:39;;;;;;;;;;;;;;;15.49;69.42;100435.34;5109307;27;19916;-85
2022/12/12 06:31:04;;;;;;;;;;;;;;;15.50;69.59;100434.50;5124902;27;19916;-86
2022/12/12 06:33:31;;;;;;;;;;;;;;;15.49;69.52;100437.97;5089849;28;20358;-85
2022/12/12 06:35:57;;;;;;;;;;;;;;;15.47;69.57;100450.19;5106041;27;20026;-87
2022/12/12 06:38:23;;;;;;;;;;;;;;;15.48;69.54;100452.88;5113020;27;19915;-85
2022/12/12 06:40:48;;;;;;;;;;;;;;;15.49;69.55;100461.66;5110387;28;20414;-86
2022/12/12 06:43:13;;;;;;;;;;;;;;;15.46;69.68;100456.31;5124481;27;20373;-86
2022/12/12 06:45:39;;;;;;;;;;;;;;;15.47;69.50;100459.00;5108786;27;19915;-85
2022/12/12 06:48:04;;;;;;;;;;;;;;;15.45;69.66;100462.41;5130849;27;19915;-85
2022/12/12 06:50:30;;;;;;;;;;;;;;;15.46;69.58;100453.69;5110297;27;20389;-86
2022/12/12 06:52:55;;;;;;;;;;;;;;;15.43;69.71;100451.84;5131882;27;19919;-86
2022/12/12 06:55:21;;;;;;;;;;;;;;;15.45;69.62;100444.91;5097081;27;20332;-85
2022/12/12 06:57:46;;;;;;;;;;;;;;;15.40;69.79;100445.59;5107474;27;19919;-85
2022/12/12 07:00:12;;;;;;;;;;;;;;;15.39;69.27;100451.72;5110298;27;19931;-86
2022/12/12 07:02:37;;;;;;;;;;;;;;;15.37;69.34;100456.94;5110129;27;19998;-87
2022/12/12 07:05:03;;;;;;;;;;;;;;;15.40;69.60;100449.13;5087726;27;19916;-86
2022/12/12 07:07:28;;;;;;;;;;;;;;;15.37;69.42;100453.41;5115296;27;20392;-87
2022/12/12 07:09:54;;;;;;;;;;;;;;;15.06;62.78;100460.38;5121160;27;19960;-85
2022/12/12 07:12:19;;;;;;;;;;;;;;;14.87;61.13;100472.06;5124953;27;20327;-87
2022/12/12 07:14:45;;;;;;;;;;;;;;;14.96;65.98;100471.44;5129075;27;19911;-86
2022/12/12 07:17:10;;;;;;;;;;;;;;;14.91;67.51;100483.56;5131750;27;20289;-86
2022/12/12 07:19:35;;;;;;;;;;;;;;;14.96;67.40;100476.72;5124924;27;20009;-85
2022/12/12 07:22:01;;;;;;;;;;;;;;;14.99;68.04;100471.56;5123579;27;19912;-86
2022/12/12 07:24:26;;;;;;;;;;;;;;;15.00;68.20;100478.59;5088522;28;19924;-84
2022/12/12 07:26:52;;;;;;;;;;;;;;;15.03;68.62;100487.47;5125995;27;19971;-86
2022/12/12 07:29:17;;;;;;;;;;;;;;;15.02;68.64;100497.94;5108492;27;19987;-86
2022/12/12 07:31:43;;;;;;;;;;;;;;;15.04;68.89;100493.63;5110258;27;20408;-86
2022/12/12 07:34:08;;;;;;;;;;;;;;;14.99;69.17;100496.09;5131348;27;19915;-86
2022/12/12 07:36:33;;;;;;;;;;;;;;;14.99;69.35;100511.88;5112645;27;19919;-86
2022/12/12 07:38:59;;;;;;;;;;;;;;;15.01;69.43;100514.56;5110184;28;20356;-85
2022/12/12 07:41:24;;;;;;;;;;;;;;;15.02;69.30;100513.72;5130084;27;20376;-86
2022/12/12 07:43:51;;;;;;;;;;;;;;;15.00;69.46;100516.28;5091407;28;20417;-86
2022/12/12 07:46:18;;;;;;;;;;;;;;;15.02;69.47;100522.50;5111554;28;19922;-86
2022/12/12 07:48:44;;;;;;;;;;;;;;;15.02;69.68;100533.00;5101985;28;20441;-86
2022/12/12 07:51:09;;;;;;;;;;;;;;;15.00;69.67;100537.31;5090092;28;19911;-85
2022/12/12 07:53:35;;;;;;;;;;;;;;;15.01;69.66;100543.50;5130872;28;20419;-86
2022/12/12 07:56:03;;;;;;;;;;;;;;;14.98;69.80;100544.25;5113819;28;19924;-86
2022/12/12 07:58:28;;;;;;;;;;;;;;;15.01;69.81;100538.25;5113206;28;19918;-85
2022/12/12 08:00:54;;;;;;;;;;;;;;;14.97;69.84;100537.25;5118130;28;19998;-84
2022/12/12 08:03:19;;;;;;;;;;;;;;;14.95;69.93;100538.03;5100363;28;20465;-85
2022/12/12 08:05:44;;;;;;;;;;;;;;;14.92;69.01;100538.84;5114224;28;19968;-86
2022/12/12 08:08:10;;;;;;;;;;;;;;;14.92;69.22;100543.19;5126896;28;20360;-85
2022/12/12 08:10:39;;;;;;;;;;;;;;;14.96;69.20;100538.06;5126973;28;19974;-85
2022/12/12 08:13:05;;;;;;;;;;;;;;;14.79;69.43;100528.75;5105472;28;20027;-84
2022/12/12 08:15:30;;;;;;;;;;;;;;;14.85;69.46;100526.31;5122898;28;19920;-84
2022/12/12 08:17:56;;;;;;;;;;;;;;;14.88;69.33;100523.81;5112583;28;19923;-85
2022/12/12 08:20:21;;;;;;;;;;;;;;;14.88;69.43;100512.38;5123859;27;20304;-84
2022/12/12 08:22:47;;;;;;;;;;;;;;;14.90;69.48;100516.88;5126995;27;19967;-85
2022/12/12 08:25:15;;;;;;;;;;;;;;;14.92;69.13;100541.47;5117506;27;19911;-85
2022/12/12 08:27:41;;;;;;;;;;;;;;;14.90;69.43;100558.94;5127851;27;19941;-85
2022/12/12 08:30:07;;;;;;;;;;;;;;;14.92;69.54;100556.31;5126894;27;19924;-85
2022/12/12 08:32:33;;;;;;;;;;;;;;;14.91;69.72;100554.56;5109673;27;19953;-84
2022/12/12 08:34:58;;;;;;;;;;;;;;;14.93;69.62;100550.25;5080523;28;19978;-84
2022/12/12 08:37:24;;;;;;;;;;;;;;;14.91;69.80;100534.41;5118277;27;19920;-85
2022/12/12 08:39:49;;;;;;;;;;;;;;;14.93;69.68;100542.34;5104891;28;20308;-85
2022/12/12 08:42:14;;;;;;;;;;;;;;;14.92;69.79;100545.81;5128536;27;19960;-84
2022/12/12 08:44:40;;;;;;;;;;;;;;;14.91;69.84;100549.28;5132252;27;19920;-84
2022/12/12 08:47:05;;;;;;;;;;;;;;;14.94;69.68;100557.28;5132659;27;20338;-84
2022/12/12 08:49:32;;;;;;;;;;;;;;;14.92;69.79;100552.00;5100199;27;20395;-85
2022/12/12 08:51:57;;;;;;;;;;;;;;;14.90;69.96;100545.78;5133400;27;19915;-85
2022/12/12 08:54:23;;;;;;;;;;;;;;;14.92;69.93;100552.00;5097532;27;19995;-84
2022/12/12 08:56:49;;;;;;;;;;;;;;;14.93;69.79;100563.38;5132462;27;20385;-85
2022/12/12 08:59:15;;;;;;;;;;;;;;;14.91;69.90;100558.06;5135379;27;19933;-85
2022/12/12 09:01:40;;;;;;;;;;;;;;;14.93;69.87;100555.50;5109859;28;20463;-82
2022/12/12 09:04:06;;;;;;;;;;;;;;;14.91;69.95;100558.06;5125515;27;19935;-85
2022/12/12 09:06:31;;;;;;;;;;;;;;;14.91;69.89;100557.19;5128450;27;19915;-84
2022/12/12 09:08:56;;;;;;;;;;;;;;;14.90;69.90;100556.31;5103249;27;20331;-87
2022/12/12 09:11:22;;;;;;;;;;;;;;;14.92;70.03;100548.44;5133295;27;19923;-84
2022/12/12 09:13:47;;;;;;;;;;;;;;;14.92;70.20;100546.72;5106804;27;19923;-85
2022/12/12 09:16:13;;;;;;;;;;;;;;;14.92;69.94;100558.97;5110615;27;19920;-84
2022/12/12 09:18:39;;;;;;;;;;;;;;;14.90;69.98;100558.00;5113322;27;20287;-85
2022/12/12 09:21:04;;;;;;;;;;;;;;;14.90;69.92;100555.38;5116378;27;19920;-84
2022/12/12 09:23:30;;;;;;;;;;;;;;;14.89;69.96;100559.75;5110966;27;19951;-86
2022/12/12 09:25:55;;;;;;;;;;;;;;;14.89;70.04;100558.88;5098518;27;19937;-84
2022/12/12 09:28:22;;;;;;;;;;;;;;;14.89;69.88;100551.88;5116667;27;19915;-84
2022/12/12 09:30:48;;;;;;;;;;;;;;;14.85;70.07;100558.75;5102316;27;19916;-82
2022/12/12 09:33:14;;;;;;;;;;;;;;;14.84;70.23;100554.34;5104834;28;19961;-83
2022/12/12 09:35:40;;;;;;;;;;;;;;;14.86;70.18;100551.78;5124088;27;20308;-84
2022/12/12 09:38:06;;;;;;;;;;;;;;;14.87;70.14;100550.91;5114648;28;19912;-84
2022/12/12 09:40:33;;;;;;;;;;;;;;;14.82;70.17;100540.25;5132052;28;19926;-84
2022/12/12 09:42:59;;;;;;;;;;;;;;;14.86;70.21;100546.53;5114679;28;19998;-84
2022/12/12 09:45:24;;;;;;;;;;;;;;;14.84;70.20;100535.06;5088842;27;20443;-84
2022/12/12 09:47:52;;;;;;;;;;;;;;;14.88;70.01;100544.84;5128452;27;19930;-83
2022/12/12 09:50:21;;;;;;;;;;;;;;;14.81;70.36;100564.75;5109364;27;19949;-84
2022/12/12 09:52:46;;;;;;;;;;;;;;;14.84;70.17;100562.25;5125305;27;19916;-83
2022/12/12 09:55:31;;;;;;;;;;;;;;;14.84;70.13;100569.25;5126027;27;19916;-84
2022/12/12 09:58:14;;;;;;;;;;;;;;;14.84;70.20;100571.88;5129770;27;20510;-84
2022/12/12 10:00:41;;;;;;;;;;;;;;;14.83;70.28;100576.22;5127218;27;19943;-85
2022/12/12 10:03:10;;;;;;;;;;;;;;;14.82;70.18;100577.06;5096975;27;20028;-82
2022/12/12 10:05:47;;;;;;;;;;;;;;;14.86;69.95;100575.44;5134523;27;19919;-85
2022/12/12 10:08:13;;;;;;;;;;;;;;;14.85;70.04;100571.00;5133757;27;19934;-84
2022/12/12 10:10:48;;;;;;;;;;;;;;;14.84;70.03;100566.59;5133239;27;20376;-86
2022/12/12 10:13:20;;;;;;;;;;;;;;;14.82;70.15;100565.66;5090463;27;19912;-84
2022/12/12 10:16:02;;;;;;;;;;;;;;;14.81;70.26;100553.34;5115497;27;19949;-83
2022/12/12 10:18:34;;;;;;;;;;;;;;;14.82;70.07;100555.16;5126243;27;19919;-84
2022/12/12 10:21:00;;;;;;;;;;;;;;;14.80;70.35;100556.84;5108084;27;19989;-84
2022/12/12 10:23:45;;;;;;;;;;;;;;;14.78;70.24;100554.16;5112556;27;19925;-84
2022/12/12 10:26:14;;;;;;;;;;;;;;;14.79;70.16;100552.41;5106766;27;20500;-85
2022/12/12 10:28:40;;;;;;;;;;;;;;;14.80;70.23;100556.84;5125490;27;19916;-85
2022/12/12 10:31:08;;;;;;;;;;;;;;;14.76;70.41;100554.94;5105030;27;19923;-84
2022/12/12 10:33:38;;;;;;;;;;;;;;;14.80;70.14;100547.19;5130009;27;19915;-83
2022/12/12 10:36:03;;;;;;;;;;;;;;;14.83;70.05;100555.19;5112458;27;20444;-84
2022/12/12 10:38:33;;;;;;;;;;;;;;;14.81;70.24;100553.34;5133677;27;20014;-86
2022/12/12 10:41:05;;;;;;;;;;;;;;;14.83;70.02;100554.28;5111707;27;20377;-84
2022/12/12 10:43:33;;;;;;;;;;;;;;;14.83;70.01;100551.66;5130162;27;20468;-85
2022/12/12 10:46:04;;;;;;;;;;;;;;;14.82;70.13;100542.88;5114053;27;19911;-85
2022/12/12 10:48:30;;;;;;;;;;;;;;;14.78;70.24;100551.50;5133282;27;20472;-84
2022/12/12 10:51:05;;;;;;;;;;;;;;;14.76;70.29;100539.16;5111966;27;20002;-84
2022/12/12 10:53:31;;;;;;;;;;;;;;;14.77;70.24;100535.69;5105136;27;20009;-84
2022/12/12 10:56:02;;;;;;;;;;;;;;;14.78;70.14;100535.75;5133149;27;19962;-85
2022/12/12 10:58:35;;;;;;;;;;;;;;;14.76;70.42;100544.44;5111760;27;20376;-84
2022/12/12 11:01:01;;;;;;;;;;;;;;;14.77;70.16;100538.31;5114091;27;19915;-84
2022/12/12 11:03:46;;;;;;;;;;;;;;;14.77;70.22;100547.09;5113379;27;20336;-83
2022/12/12 11:06:13;;;;;;;;;;;;;;;14.75;70.39;100547.88;5113445;27;19912;-84
2022/12/12 11:08:39;;;;;;;;;;;;;;;14.75;70.30;100546.16;5110457;27;19951;-85
2022/12/12 11:11:07;;;;;;;;;;;;;;;14.77;70.18;100543.56;5112917;28;19953;-84
2022/12/12 11:13:44;;;;;;;;;;;;;;;14.76;70.42;100544.44;5131866;27;19918;-84
2022/12/12 11:16:15;;;;;;;;;;;;;;;14.75;70.35;100548.78;5104499;27;19919;-84
2022/12/12 11:18:40;;;;;;;;;;;;;;;14.78;70.30;100548.00;5090900;27;19911;-85
2022/12/12 11:21:07;;;;;;;;;;;;;;;14.74;70.29;100548.75;5085747;27;20006;-85
2022/12/12 11:23:33;;;;;;;;;;;;;;;14.77;70.20;100554.97;5092665;28;20399;-85
2022/12/12 11:26:02;;;;;;;;;;;;;;;14.76;70.24;100562.81;5102717;27;20510;-85
2022/12/12 11:28:32;;;;;;;;;;;;;;;14.68;70.64;100559.94;5089387;27;19919;-86
2022/12/12 11:30:58;;;;;;;;;;;;;;;14.72;70.46;100567.06;5112986;27;19923;-85
2022/12/12 11:33:31;;;;;;;;;;;;;;;14.75;70.12;100561.94;5107779;28;19934;-85
2022/12/12 11:35:56;;;;;;;;;;;;;;;14.71;70.45;100569.66;5113373;28;19945;-85
2022/12/12 11:38:26;;;;;;;;;;;;;;;14.73;70.30;100562.72;5131460;27;20709;-86
2022/12/12 11:41:18;;;;;;;;;;;;;;;14.67;70.48;100573.94;5092335;28;20010;-86
2022/12/12 11:43:43;;;;;;;;;;;;;;;14.73;70.43;100565.34;5102936;28;19958;-85
2022/12/12 11:46:15;;;;;;;;;;;;;;;14.75;70.22;100569.81;5130786;28;19959;-85
2022/12/12 11:48:46;;;;;;;;;;;;;;;14.74;70.15;100562.75;5131630;28;20388;-86
2022/12/12 11:51:12;;;;;;;;;;;;;;;14.75;70.19;100572.44;5112714;28;19912;-83
2022/12/12 11:53:42;;;;;;;;;;;;;;;14.73;70.30;100570.59;5113341;28;19915;-83
2022/12/12 11:56:08;;;;;;;;;;;;;;;14.73;70.31;100568.88;5112972;27;20368;-84
2022/12/12 11:58:43;;;;;;;;;;;;;;;14.70;70.29;100579.28;5135499;27;19947;-84
2022/12/12 12:01:10;;;;;;;;;;;;;;;14.68;70.48;100565.19;5117846;27;19916;-84
2022/12/12 12:03:36;;;;;;;;;;;;;;;14.61;70.54;100571.09;5118238;27;20380;-84
2022/12/12 12:06:20;;;;;;;;;;;;;;;14.69;70.27;100577.50;5136017;27;20044;-84
2022/12/12 12:08:48;;;;;;;;;;;;;;;14.70;70.46;100578.38;5135925;27;19950;-83
2022/12/12 12:11:16;;;;;;;;;;;;;;;14.65;70.41;100578.22;5135802;27;20384;-84
2022/12/12 12:13:51;;;;;;;;;;;;;;;14.67;70.33;100579.19;5135106;27;19915;-84
2022/12/12 12:16:32;;;;;;;;;;;;;;;14.68;70.36;100580.06;5135220;27;20373;-83
2022/12/12 12:19:07;;;;;;;;;;;;;;;14.68;70.52;100577.44;5135353;27;19919;-83
2022/12/12 12:21:38;;;;;;;;;;;;;;;14.65;70.43;100572.97;5135175;27;19926;-83
2022/12/12 12:24:07;;;;;;;;;;;;;;;14.57;70.72;100572.69;5133461;27;19912;-85
2022/12/12 12:26:39;;;;;;;;;;;;;;;14.64;70.38;100579.06;5130217;27;19912;-84
2022/12/12 12:29:30;;;;;;;;;;;;;;;14.65;70.42;100573.88;5117712;27;19912;-84
2022/12/12 12:32:11;;;;;;;;;;;;;;;14.62;70.49;100573.75;5129863;27;19964;-84
2022/12/12 12:34:41;;;;;;;;;;;;;;;14.66;70.37;100575.63;5096823;27;19922;-84
2022/12/12 12:37:21;;;;;;;;;;;;;;;14.68;70.46;100587.94;5135512;27;19916;-84
2022/12/12 12:39:59;;;;;;;;;;;;;;;14.66;70.53;100587.88;5127304;27;20336;-84
2022/12/12 12:42:49;;;;;;;;;;;;;;;14.62;70.56;100588.63;5116997;27;19916;-85
2022/12/12 12:45:14;;;;;;;;;;;;;;;14.60;70.61;100585.94;5113219;27;19964;-85
2022/12/12 12:48:12;;;;;;;;;;;;;;;14.55;70.54;100583.97;5102637;27;19915;-87
2022/12/12 12:50:39;;;;;;;;;;;;;;;14.59;71.40;100593.78;5090216;27;19950;-87
2022/12/12 12:53:20;;;;;;;;;;;;;;;14.71;71.76;100588.97;5116468;27;19912;-86
2022/12/12 12:55:46;;;;;;;;;;;;;;;14.66;71.45;100586.16;5134307;27;20395;-87
2022/12/12 12:58:38;;;;;;;;;;;;;;;14.68;71.27;100594.09;5116508;27;19969;-87